Terminal Aerodrome Forecast
Issued by NWS

Home | Current Version | Previous Version | Text Only | Print | Product List | Glossary On
Versions: 1 2 3 4 5 6 7 8 9 10 11 12 13 14
000
FTUS46 KSEW 272320
TAFOLM
TAF
KOLM 272320Z 2800/2824 VRB03KT P6SM SCT100 BKN250
     FM280500 VRB03KT P6SM BKN080 OVC140
     FM280900 20003KT P6SM BKN050 OVC080
     FM281100 20004KT P6SM -RA BKN025 OVC050
     FM281800 20006KT P6SM BKN040 BKN080 PROB30 2818/2824 -RA=

USA.gov is the U.S. government's official web portal to all federal, state and local government web resources and services.